Time;durP1;ratioP1;P1;durP2;ratioP2;P2;SDS_P1;SDS_P2;PMS_P1;PMS_P2;Temp;Humidity;BMP_temperature;BMP_pressure;BME280_temperature;BME280_humidity;BME280_pressure;Samples;Min_cycle;Max_cycle;Signal;HPM_P1;HPM_P2
2021/12/20 00:02:21;0.00;0.00;0.62;0.00;0.00;0.62;4.43;1.30;;;22.80;31.20;;;;;;2257098;61;20351;-60
2021/12/20 00:05:07;0.00;0.00;0.62;0.00;0.00;0.62;4.30;1.87;;;22.80;31.20;;;;;;2257898;61;20386;-63
2021/12/20 00:07:52;0.00;0.00;0.62;0.00;0.00;0.62;2.00;1.30;;;22.80;31.20;;;;;;2258018;61;20367;-63
2021/12/20 00:10:36;0.00;0.00;0.62;0.00;0.00;0.62;6.50;1.60;;;22.80;31.20;;;;;;2257808;61;20359;-61
2021/12/20 00:13:22;0.00;0.00;0.62;0.00;0.00;0.62;3.80;1.67;;;22.80;31.20;;;;;;2257883;61;20386;-60
2021/12/20 00:16:07;0.00;0.00;0.62;0.00;0.00;0.62;4.53;2.00;;;22.80;31.10;;;;;;2257469;61;20394;-61
2021/12/20 00:18:53;0.00;0.00;0.62;0.00;0.00;0.62;3.70;1.50;;;22.80;31.80;;;;;;2257925;61;20354;-58
2021/12/20 00:21:38;0.00;0.00;0.62;0.00;0.00;0.62;4.93;2.00;;;22.80;31.00;;;;;;2258010;61;20758;-60
2021/12/20 00:24:23;0.00;0.00;0.62;0.00;0.00;0.62;4.80;1.87;;;22.80;31.00;;;;;;2256576;61;20874;-59
2021/12/20 00:27:09;0.00;0.00;0.62;0.00;0.00;0.62;2.23;1.27;;;22.80;31.00;;;;;;2257974;61;20443;-63
2021/12/20 00:29:54;0.00;0.00;0.62;0.00;0.00;0.62;2.90;1.50;;;22.80;31.00;;;;;;2257880;61;20366;-60
2021/12/20 00:32:39;0.00;0.00;0.62;0.00;0.00;0.62;4.50;1.60;;;22.80;31.00;;;;;;2257579;61;20356;-59
2021/12/20 00:35:25;0.00;0.00;0.62;0.00;0.00;0.62;4.87;1.67;;;22.80;31.00;;;;;;2257970;61;20367;-59
2021/12/20 00:41:14;0.00;0.00;0.62;0.00;0.00;0.62;4.57;2.03;;;22.80;30.90;;;;;;2257939;61;20777;-60
2021/12/20 00:43:59;0.00;0.00;0.62;0.00;0.00;0.62;7.73;1.60;;;22.80;30.80;;;;;;2257602;61;20459;-61
2021/12/20 00:46:43;0.00;0.00;0.62;0.00;0.00;0.62;3.47;1.80;;;22.80;30.70;;;;;;2257097;61;20445;-56
2021/12/20 00:49:28;0.00;0.00;0.62;0.00;0.00;0.62;2.90;1.80;;;22.80;30.60;;;;;;2257938;61;20358;-61
2021/12/20 00:52:14;0.00;0.00;0.62;0.00;0.00;0.62;4.00;2.13;;;22.80;30.60;;;;;;2257513;61;20386;-59
2021/12/20 00:54:59;0.00;0.00;0.62;0.00;0.00;0.62;4.20;2.00;;;22.80;30.40;;;;;;2256811;61;20461;-62
2021/12/20 00:57:44;0.00;0.00;0.62;0.00;0.00;0.62;3.57;2.00;;;22.80;30.30;;;;;;2257909;61;20402;-62
2021/12/20 01:00:32;0.00;0.00;0.62;0.00;0.00;0.62;4.23;2.20;;;22.80;30.20;;;;;;2256956;61;20450;-59
2021/12/20 01:03:18;0.00;0.00;0.62;0.00;0.00;0.62;4.83;2.23;;;22.70;30.10;;;;;;2257671;61;20395;-62
2021/12/20 01:06:03;0.00;0.00;0.62;0.00;0.00;0.62;3.10;2.10;;;22.70;30.00;;;;;;2257545;61;20422;-61
2021/12/20 01:08:51;0.00;0.00;0.62;0.00;0.00;0.62;4.30;2.00;;;22.70;30.00;;;;;;2257046;61;20726;-61
2021/12/20 01:11:39;0.00;0.00;0.62;0.00;0.00;0.62;3.90;2.00;;;22.70;30.00;;;;;;2257780;61;20553;-58
2021/12/20 01:14:27;0.00;0.00;0.62;0.00;0.00;0.62;7.00;3.70;;;22.70;30.00;;;;;;2257274;61;20375;-60
2021/12/20 01:17:11;0.00;0.00;0.62;0.00;0.00;0.62;4.40;2.73;;;22.70;30.50;;;;;;2257837;61;20394;-62
2021/12/20 01:19:56;0.00;0.00;0.62;0.00;0.00;0.62;3.33;2.00;;;22.70;29.90;;;;;;2257788;61;20498;-61
2021/12/20 01:22:42;0.00;0.00;0.62;0.00;0.00;0.62;4.83;2.80;;;22.60;29.80;;;;;;2257375;61;20358;-60
2021/12/20 01:25:29;0.00;0.00;0.62;0.00;0.00;0.62;5.40;2.93;;;22.60;29.80;;;;;;2257771;61;20398;-63
2021/12/20 01:28:13;0.00;0.00;0.62;0.00;0.00;0.62;8.53;3.27;;;22.60;29.70;;;;;;2257397;61;20475;-61
2021/12/20 01:30:57;0.00;0.00;0.62;0.00;0.00;0.62;6.30;2.90;;;22.60;29.70;;;;;;2257015;61;20351;-62
2021/12/20 01:33:42;0.00;0.00;0.62;0.00;0.00;0.62;4.93;2.63;;;22.60;29.70;;;;;;2254234;61;20377;-59
2021/12/20 01:36:26;0.00;0.00;0.62;0.00;0.00;0.62;6.30;2.80;;;22.50;29.60;;;;;;2257864;61;20402;-60
2021/12/20 01:39:11;0.00;0.00;0.62;0.00;0.00;0.62;6.10;2.30;;;22.50;29.60;;;;;;2257104;61;20615;-59
2021/12/20 01:41:59;0.00;0.00;0.62;0.00;0.00;0.62;6.93;3.00;;;22.50;30.10;;;;;;2257518;61;20406;-59
2021/12/20 01:44:44;0.00;0.00;0.62;0.00;0.00;0.62;9.67;3.43;;;22.50;29.60;;;;;;2257193;61;20603;-60
2021/12/20 01:47:31;0.00;0.00;0.62;0.00;0.00;0.62;5.57;2.37;;;22.40;29.50;;;;;;2257612;61;20451;-61
2021/12/20 01:53:23;0.00;0.00;0.62;0.00;0.00;0.62;7.63;2.80;;;22.40;29.40;;;;;;2256789;61;20385;-60
2021/12/20 01:56:10;0.00;0.00;0.62;0.00;0.00;0.62;5.67;2.83;;;22.40;29.40;;;;;;2257582;61;20358;-59
2021/12/20 01:59:02;0.00;0.00;0.62;0.00;0.00;0.62;5.07;2.90;;;22.30;29.30;;;;;;2257655;61;20588;-62
2021/12/20 02:01:47;0.00;0.00;0.62;0.00;0.00;0.62;4.90;2.83;;;22.30;29.30;;;;;;2257542;61;20450;-62
2021/12/20 02:04:32;0.00;0.00;0.62;0.00;0.00;0.62;5.53;2.30;;;22.30;29.30;;;;;;2257468;61;20434;-57
2021/12/20 02:10:24;0.00;0.00;0.62;0.00;0.00;0.62;7.40;2.80;;;22.30;29.30;;;;;;2257802;61;20371;-62
2021/12/20 02:13:09;0.00;0.00;0.62;0.00;0.00;0.62;4.87;2.60;;;22.30;29.30;;;;;;2257767;61;20359;-60
2021/12/20 02:15:55;0.00;0.00;0.62;0.00;0.00;0.62;8.97;3.23;;;22.20;29.20;;;;;;2257171;61;20371;-62
2021/12/20 02:18:40;0.00;0.00;0.62;0.00;0.00;0.62;6.37;3.00;;;22.20;29.20;;;;;;2257323;61;20363;-60
2021/12/20 02:21:26;0.00;0.00;0.62;0.00;0.00;0.62;4.63;2.63;;;22.20;29.20;;;;;;2257186;61;20375;-60
2021/12/20 02:24:11;0.00;0.00;0.62;0.00;0.00;0.62;7.10;2.60;;;22.20;29.20;;;;;;2257252;61;20453;-59
2021/12/20 02:26:56;0.00;0.00;0.62;0.00;0.00;0.62;4.37;2.53;;;22.20;29.20;;;;;;2254430;61;20358;-62
2021/12/20 02:29:47;0.00;0.00;0.62;0.00;0.00;0.62;5.20;2.80;;;22.10;29.10;;;;;;2257105;61;20358;-61
2021/12/20 02:38:55;0.00;0.00;0.62;0.00;0.00;0.62;5.03;2.60;;;22.10;29.10;;;;;;2257354;61;20355;-62
2021/12/20 02:41:41;0.00;0.00;0.62;0.00;0.00;0.62;6.13;2.83;;;22.00;29.10;;;;;;2257523;61;20391;-62
2021/12/20 02:44:28;0.00;0.00;0.62;0.00;0.00;0.62;6.37;2.30;;;22.00;29.10;;;;;;2256902;61;20750;-60
2021/12/20 02:47:26;0.00;0.00;0.62;0.00;0.00;0.62;5.73;2.90;;;22.00;29.10;;;;;;2257757;61;20627;-62
2021/12/20 02:50:12;0.00;0.00;0.62;0.00;0.00;0.62;5.93;2.80;;;22.00;29.10;;;;;;2257866;61;20727;-59
2021/12/20 02:52:56;0.00;0.00;0.62;0.00;0.00;0.62;3.30;2.13;;;22.00;29.10;;;;;;2256713;61;20398;-61
2021/12/20 02:55:42;0.00;0.00;0.62;0.00;0.00;0.62;5.00;2.50;;;21.90;29.00;;;;;;2257519;61;20370;-58
2021/12/20 02:58:26;0.00;0.00;0.62;0.00;0.00;0.62;5.07;2.70;;;22.00;29.10;;;;;;2257081;61;20358;-59
2021/12/20 03:01:11;0.00;0.00;0.62;0.00;0.00;0.62;4.20;2.43;;;21.90;29.00;;;;;;2257309;61;20743;-59
2021/12/20 03:03:57;0.00;0.00;0.62;0.00;0.00;0.62;4.00;2.43;;;21.90;29.00;;;;;;2257305;61;20378;-63
2021/12/20 03:06:47;0.00;0.00;0.62;0.00;0.00;0.62;5.20;2.17;;;21.90;29.00;;;;;;2256995;61;20586;-58
2021/12/20 03:09:36;0.00;0.00;0.62;0.00;0.00;0.62;3.70;2.37;;;21.80;28.90;;;;;;2257685;61;20391;-58
2021/12/20 03:12:27;0.00;0.00;0.62;0.00;0.00;0.62;4.07;2.10;;;21.80;28.90;;;;;;2257505;61;20502;-59
2021/12/20 03:15:17;0.00;0.00;0.62;0.00;0.00;0.62;4.10;2.20;;;21.80;28.90;;;;;;2257176;61;20402;-61
2021/12/20 03:18:02;0.00;0.00;0.62;0.00;0.00;0.62;5.17;2.40;;;21.80;28.90;;;;;;2257428;61;20579;-58
2021/12/20 03:20:47;0.00;0.00;0.62;0.00;0.00;0.62;4.10;2.30;;;21.70;28.80;;;;;;2256887;61;20397;-59
2021/12/20 03:23:31;0.00;0.00;0.62;0.00;0.00;0.62;3.23;1.63;;;21.70;28.80;;;;;;2257240;61;20390;-58
2021/12/20 03:26:16;0.00;0.00;0.62;0.00;0.00;0.62;3.43;1.90;;;21.70;28.90;;;;;;2257240;61;20580;-62
2021/12/20 03:29:03;0.00;0.00;0.62;0.00;0.00;0.62;3.50;2.10;;;21.70;28.80;;;;;;2256973;61;20414;-62
2021/12/20 03:31:48;0.00;0.00;0.62;0.00;0.00;0.62;3.30;1.40;;;21.70;28.80;;;;;;2258383;61;20482;-60
2021/12/20 03:34:33;0.00;0.00;0.62;0.00;0.00;0.62;3.03;1.83;;;21.70;28.80;;;;;;2258156;61;20387;-58
2021/12/20 03:37:17;0.00;0.00;0.62;0.00;0.00;0.62;4.80;2.27;;;21.60;28.80;;;;;;2257714;61;20370;-59
2021/12/20 03:40:04;0.00;0.00;0.62;0.00;0.00;0.62;3.30;1.93;;;21.60;28.70;;;;;;2258036;61;20370;-62
2021/12/20 03:42:49;0.00;0.00;0.62;0.00;0.00;0.62;3.77;1.77;;;21.60;28.70;;;;;;2257513;61;20366;-63
2021/12/20 03:45:36;0.00;0.00;0.62;0.00;0.00;0.62;3.07;1.70;;;21.60;28.70;;;;;;2258027;61;20581;-61
2021/12/20 03:48:20;0.00;0.00;0.62;0.00;0.00;0.62;2.80;1.50;;;21.60;28.70;;;;;;2257590;61;20462;-61
2021/12/20 03:51:06;0.00;0.00;0.62;0.00;0.00;0.62;3.63;1.43;;;21.50;28.60;;;;;;2257663;61;20359;-55
2021/12/20 03:53:51;0.00;0.00;0.62;0.00;0.00;0.62;2.37;1.60;;;21.50;28.60;;;;;;2258249;61;20813;-60
2021/12/20 03:56:36;0.00;0.00;0.62;0.00;0.00;0.62;3.07;1.60;;;21.50;28.70;;;;;;2258317;61;20366;-59
2021/12/20 03:59:20;0.00;0.00;0.62;0.00;0.00;0.62;2.50;1.60;;;21.50;28.60;;;;;;2257403;61;20433;-61
2021/12/20 04:02:06;0.00;0.00;0.62;0.00;0.00;0.62;2.33;1.47;;;21.50;28.70;;;;;;2257809;61;20390;-59
2021/12/20 04:04:51;0.00;0.00;0.62;0.00;0.00;0.62;2.30;1.50;;;21.40;28.50;;;;;;2257713;61;20382;-62
2021/12/20 04:07:36;0.00;0.00;0.62;0.00;0.00;0.62;2.67;1.70;;;21.40;28.50;;;;;;2258142;61;20406;-61
2021/12/20 04:10:21;0.00;0.00;0.62;0.00;0.00;0.62;3.07;1.53;;;21.40;28.50;;;;;;2257993;61;20697;-59
2021/12/20 04:13:09;0.00;0.00;0.62;0.00;0.00;0.62;2.67;1.70;;;21.40;28.50;;;;;;2257392;61;20387;-59
2021/12/20 04:15:54;0.00;0.00;0.62;0.00;0.00;0.62;1.63;1.10;;;21.40;28.60;;;;;;2257911;61;20722;-62
2021/12/20 04:18:40;0.00;0.00;0.62;0.00;0.00;0.62;1.90;1.47;;;21.40;28.60;;;;;;2258197;61;20583;-61
2021/12/20 04:21:25;0.00;0.00;0.62;0.00;0.00;0.62;3.17;1.57;;;21.40;28.60;;;;;;2257209;61;20567;-63
2021/12/20 04:24:09;0.00;0.00;0.62;0.00;0.00;0.62;2.87;1.50;;;21.30;28.50;;;;;;2257698;61;20374;-63
2021/12/20 04:26:54;0.00;0.00;0.62;0.00;0.00;0.62;2.40;1.50;;;21.30;28.50;;;;;;2258216;61;20391;-61
2021/12/20 04:29:39;0.00;0.00;0.62;0.00;0.00;0.62;2.13;1.17;;;21.30;28.50;;;;;;2257752;61;20363;-59
2021/12/20 04:32:23;0.00;0.00;0.62;0.00;0.00;0.62;3.23;1.50;;;21.30;28.60;;;;;;2257834;61;20367;-58
2021/12/20 04:35:12;0.00;0.00;0.62;0.00;0.00;0.62;3.47;1.40;;;21.30;28.60;;;;;;2257393;61;20394;-59
2021/12/20 04:37:58;0.00;0.00;0.62;0.00;0.00;0.62;3.20;1.67;;;21.20;28.50;;;;;;2257935;61;20706;-61
2021/12/20 04:40:43;0.00;0.00;0.62;0.00;0.00;0.62;2.50;1.57;;;21.30;28.60;;;;;;2257911;61;20433;-59
2021/12/20 04:43:28;0.00;0.00;0.62;0.00;0.00;0.62;2.17;1.47;;;21.20;28.50;;;;;;2256753;61;20383;-56
2021/12/20 04:46:12;0.00;0.00;0.62;0.00;0.00;0.62;3.17;1.53;;;21.20;28.50;;;;;;2257355;61;20363;-61
2021/12/20 04:48:57;0.00;0.00;0.62;0.00;0.00;0.62;3.00;1.50;;;21.20;28.50;;;;;;2257871;61;20363;-57
2021/12/20 04:51:43;0.00;0.00;0.62;0.00;0.00;0.62;2.10;1.33;;;21.20;28.50;;;;;;2257064;61;20406;-56
2021/12/20 04:54:27;0.00;0.00;0.62;0.00;0.00;0.62;2.77;1.53;;;21.20;28.50;;;;;;2257804;61;20382;-58
2021/12/20 04:57:12;0.00;0.00;0.62;0.00;0.00;0.62;2.60;1.10;;;21.20;28.50;;;;;;2257383;61;20402;-63
2021/12/20 04:59:56;0.00;0.00;0.62;0.00;0.00;0.62;1.83;1.13;;;21.10;28.40;;;;;;2257694;61;20405;-62
2021/12/20 05:02:41;0.00;0.00;0.62;0.00;0.00;0.62;4.00;1.63;;;21.10;28.40;;;;;;2257825;61;20371;-57
2021/12/20 05:05:28;0.00;0.00;0.62;0.00;0.00;0.62;2.00;1.37;;;21.10;28.40;;;;;;2256816;61;20402;-58
2021/12/20 05:08:15;0.00;0.00;0.62;0.00;0.00;0.62;2.10;1.23;;;21.10;28.40;;;;;;2257817;61;20363;-59
2021/12/20 05:11:00;0.00;0.00;0.62;0.00;0.00;0.62;2.60;1.07;;;21.10;28.40;;;;;;2258044;61;20410;-60
2021/12/20 05:13:44;0.00;0.00;0.62;0.00;0.00;0.62;2.10;1.40;;;21.10;28.40;;;;;;2257247;61;20648;-60
2021/12/20 05:16:29;0.00;0.00;0.62;0.00;0.00;0.62;2.00;1.27;;;21.10;28.50;;;;;;2257867;61;20362;-57
2021/12/20 05:19:14;0.00;0.00;0.62;0.00;0.00;0.62;3.30;1.30;;;21.00;28.50;;;;;;2257215;61;20416;-58
2021/12/20 05:21:58;0.00;0.00;0.62;0.00;0.00;0.62;2.37;1.50;;;21.00;28.40;;;;;;2257699;61;20391;-62
2021/12/20 05:24:44;0.00;0.00;0.62;0.00;0.00;0.62;3.63;1.93;;;21.00;28.30;;;;;;2254536;61;20418;-63
2021/12/20 05:27:28;0.00;0.00;0.62;0.00;0.00;0.62;2.70;1.23;;;21.00;28.20;;;;;;2257180;61;20592;-58
2021/12/20 05:30:15;0.00;0.00;0.62;0.00;0.00;0.62;2.83;1.53;;;21.00;28.20;;;;;;2258028;61;20358;-60
2021/12/20 05:32:59;0.00;0.00;0.62;0.00;0.00;0.62;2.97;1.57;;;21.00;28.20;;;;;;2257723;61;20594;-57
2021/12/20 05:35:44;0.00;0.00;0.62;0.00;0.00;0.62;2.70;1.70;;;21.00;28.20;;;;;;2257368;61;20562;-59
2021/12/20 05:38:28;0.00;0.00;0.62;0.00;0.00;0.62;2.77;1.67;;;20.90;28.10;;;;;;2257763;61;20378;-62
2021/12/20 05:41:14;0.00;0.00;0.62;0.00;0.00;0.62;3.47;1.30;;;20.90;28.10;;;;;;2257014;61;20386;-63
2021/12/20 05:43:59;0.00;0.00;0.62;0.00;0.00;0.62;3.07;1.90;;;20.90;28.70;;;;;;2257542;61;20398;-61
2021/12/20 05:46:44;0.00;0.00;0.62;0.00;0.00;0.62;2.00;1.30;;;20.90;28.10;;;;;;2257635;61;20367;-61
2021/12/20 05:49:30;0.00;0.00;0.62;0.00;0.00;0.62;3.67;1.70;;;20.90;28.10;;;;;;2257257;61;20665;-61
2021/12/20 05:52:14;0.00;0.00;0.62;0.00;0.00;0.62;2.53;1.30;;;20.80;28.00;;;;;;2257833;61;20746;-59
2021/12/20 05:54:59;0.00;0.00;0.62;0.00;0.00;0.62;2.90;1.33;;;20.90;28.00;;;;;;2257822;61;20403;-64
2021/12/20 05:57:46;0.00;0.00;0.62;0.00;0.00;0.62;2.43;1.33;;;20.90;28.00;;;;;;2256888;61;20694;-60
2021/12/20 06:00:30;0.00;0.00;0.62;0.00;0.00;0.62;3.80;1.73;;;20.80;28.00;;;;;;2257068;61;20387;-60
2021/12/20 06:03:15;0.00;0.00;0.62;0.00;0.00;0.62;1.73;1.37;;;20.80;27.90;;;;;;2257108;61;20383;-58
2021/12/20 06:05:59;0.00;0.00;0.62;0.00;0.00;0.62;2.00;1.20;;;20.80;27.90;;;;;;2257598;61;20387;-59
2021/12/20 06:08:44;0.00;0.00;0.62;0.00;0.00;0.62;3.53;1.77;;;20.80;27.90;;;;;;2257367;61;20734;-60
2021/12/20 06:11:28;0.00;0.00;0.62;0.00;0.00;0.62;1.93;1.20;;;20.80;27.90;;;;;;2257130;61;20742;-61
2021/12/20 06:14:15;0.00;0.00;0.62;0.00;0.00;0.62;3.03;1.70;;;20.80;27.80;;;;;;2257545;61;20781;-57
2021/12/20 06:17:00;0.00;0.00;0.62;0.00;0.00;0.62;2.83;1.73;;;20.80;27.80;;;;;;2257495;61;20482;-56
2021/12/20 06:19:44;0.00;0.00;0.62;0.00;0.00;0.62;2.33;1.43;;;20.70;27.70;;;;;;2256918;61;20399;-63
2021/12/20 06:22:29;0.00;0.00;0.62;0.00;0.00;0.62;2.60;1.80;;;20.70;27.70;;;;;;2257277;61;20366;-59
2021/12/20 06:25:14;0.00;0.00;0.62;0.00;0.00;0.62;2.73;1.67;;;20.70;27.60;;;;;;2257409;61;20426;-63
2021/12/20 06:27:59;0.00;0.00;0.62;0.00;0.00;0.62;4.20;1.67;;;20.70;27.60;;;;;;2257515;61;20355;-56
2021/12/20 06:30:45;0.00;0.00;0.62;0.00;0.00;0.62;3.30;1.43;;;20.60;27.60;;;;;;2257541;61;20359;-60
2021/12/20 06:33:29;0.00;0.00;0.62;0.00;0.00;0.62;3.37;1.93;;;20.60;27.60;;;;;;2257026;61;20430;-60
2021/12/20 06:36:14;0.00;0.00;0.62;0.00;0.00;0.62;2.50;1.50;;;20.70;27.70;;;;;;2257425;61;20366;-61
2021/12/20 06:38:58;0.00;0.00;0.62;0.00;0.00;0.62;2.53;1.77;;;20.60;27.60;;;;;;2257604;61;20763;-59
2021/12/20 06:41:43;0.00;0.00;0.62;0.00;0.00;0.62;2.93;1.70;;;20.60;27.60;;;;;;2256781;61;20418;-60
2021/12/20 06:44:28;0.00;0.00;0.62;0.00;0.00;0.62;2.70;1.47;;;20.60;27.60;;;;;;2257223;61;20375;-63
2021/12/20 06:47:14;0.00;0.00;0.62;0.00;0.00;0.62;2.10;1.30;;;20.60;27.80;;;;;;2257753;61;20702;-60
2021/12/20 06:49:59;0.00;0.00;0.62;0.00;0.00;0.62;2.17;1.40;;;20.60;27.60;;;;;;2257005;61;20363;-60
2021/12/20 06:52:43;0.00;0.00;0.62;0.00;0.00;0.62;2.93;1.23;;;20.60;27.70;;;;;;2257355;61;20390;-56
2021/12/20 06:55:28;0.00;0.00;0.62;0.00;0.00;0.62;2.67;1.70;;;20.60;27.70;;;;;;2257123;61;20394;-61
2021/12/20 06:58:13;0.00;0.00;0.62;0.00;0.00;0.62;1.80;1.10;;;20.60;27.70;;;;;;2254180;61;20371;-63
2021/12/20 07:00:57;0.00;0.00;0.62;0.00;0.00;0.62;1.67;1.00;;;20.60;27.70;;;;;;2257456;61;20394;-62
2021/12/20 07:03:43;0.00;0.00;0.62;0.00;0.00;0.62;2.30;1.30;;;20.60;27.80;;;;;;2256761;61;20699;-60
2021/12/20 07:06:28;0.00;0.00;0.62;0.00;0.00;0.62;2.20;1.20;;;20.60;27.80;;;;;;2254450;61;20362;-59
2021/12/20 07:09:13;0.00;0.00;0.62;0.00;0.00;0.62;2.27;1.27;;;20.50;27.80;;;;;;2257721;61;20437;-58
2021/12/20 07:11:59;0.00;0.00;0.62;0.00;0.00;0.62;2.67;1.27;;;20.60;27.80;;;;;;2256877;61;20355;-60
2021/12/20 07:14:43;0.00;0.00;0.62;0.00;0.00;0.62;2.50;1.20;;;20.50;27.80;;;;;;2257448;61;20746;-60
2021/12/20 07:17:29;0.00;0.00;0.62;0.00;0.00;0.62;3.10;1.50;;;20.60;27.90;;;;;;2256931;61;20355;-60
2021/12/20 07:20:15;0.00;0.00;0.62;0.00;0.00;0.62;2.07;1.20;;;20.60;27.90;;;;;;2257227;61;20403;-58
2021/12/20 07:23:00;0.00;0.00;0.62;0.00;0.00;0.62;1.77;1.00;;;20.60;27.90;;;;;;2257320;61;20358;-62
2021/12/20 07:25:45;0.00;0.00;0.62;0.00;0.00;0.62;1.93;1.20;;;20.50;27.90;;;;;;2256756;61;20367;-57
2021/12/20 07:28:29;0.00;0.00;0.62;0.00;0.00;0.62;2.27;1.00;;;20.50;27.90;;;;;;2257694;61;20397;-60
2021/12/20 07:31:14;0.00;0.00;0.62;0.00;0.00;0.62;1.67;0.93;;;20.50;27.90;;;;;;2257733;61;20431;-58
2021/12/20 07:33:59;0.00;0.00;0.62;0.00;0.00;0.62;2.70;1.60;;;20.60;28.00;;;;;;2256498;61;20390;-58
2021/12/20 07:36:45;0.00;0.00;0.62;0.00;0.00;0.62;2.07;1.23;;;20.50;27.90;;;;;;2257454;61;20470;-61
2021/12/20 07:39:30;0.00;0.00;0.62;0.00;0.00;0.62;1.67;1.00;;;20.50;27.90;;;;;;2257000;61;20478;-59
2021/12/20 07:42:15;0.00;0.00;0.62;0.00;0.00;0.62;2.07;1.00;;;20.60;28.00;;;;;;2257126;61;20425;-59
2021/12/20 07:45:00;0.00;0.00;0.62;0.00;0.00;0.62;1.40;1.00;;;20.60;28.00;;;;;;2257351;61;20379;-60
2021/12/20 07:47:45;0.00;0.00;0.62;0.00;0.00;0.62;1.70;1.13;;;20.60;28.10;;;;;;2256841;61;20367;-62
2021/12/20 07:50:30;0.00;0.00;0.62;0.00;0.00;0.62;2.30;1.20;;;20.50;28.00;;;;;;2257302;61;20427;-58
2021/12/20 07:53:16;0.00;0.00;0.62;0.00;0.00;0.62;2.03;1.23;;;20.50;28.00;;;;;;2257289;61;20746;-58
2021/12/20 07:56:03;0.00;0.00;0.62;0.00;0.00;0.62;1.73;1.00;;;20.60;28.10;;;;;;2256737;61;20362;-60
2021/12/20 07:58:47;0.00;0.00;0.62;0.00;0.00;0.62;1.50;0.90;;;20.60;28.10;;;;;;2257774;61;20394;-62
2021/12/20 08:01:34;0.00;0.00;0.62;0.00;0.00;0.62;2.10;0.93;;;20.50;28.00;;;;;;2257230;61;20382;-60
2021/12/20 08:04:21;0.00;0.00;0.62;0.00;0.00;0.62;1.90;0.97;;;20.50;28.10;;;;;;2257132;61;20410;-55
2021/12/20 08:07:05;0.00;0.00;0.62;0.00;0.00;0.62;1.40;0.80;;;20.50;28.00;;;;;;2257349;61;20414;-63
2021/12/20 08:09:51;0.00;0.00;0.62;0.00;0.00;0.62;1.63;0.90;;;20.60;28.20;;;;;;2256767;61;20581;-62
2021/12/20 08:12:36;0.00;0.00;0.62;0.00;0.00;0.62;1.60;1.03;;;20.50;28.10;;;;;;2257223;61;20355;-61
2021/12/20 08:15:25;0.00;0.00;0.62;0.00;0.00;0.62;1.80;1.07;;;20.50;28.10;;;;;;2257185;61;20363;-59
2021/12/20 08:18:09;0.00;0.00;0.62;0.00;0.00;0.62;1.50;0.90;;;20.60;28.20;;;;;;2257315;61;20706;-59
2021/12/20 08:20:55;0.00;0.00;0.62;0.00;0.00;0.62;1.70;0.90;;;20.60;28.20;;;;;;2257997;61;20609;-57
2021/12/20 08:23:41;0.00;0.00;0.62;0.00;0.00;0.62;2.07;0.93;;;20.60;28.20;;;;;;2257653;61;20447;-58
2021/12/20 08:26:27;0.00;0.00;0.62;0.00;0.00;0.62;1.57;0.87;;;20.60;28.20;;;;;;2257848;61;20343;-56
2021/12/20 08:29:11;0.00;0.00;0.62;0.00;0.00;0.62;1.50;0.80;;;20.60;28.20;;;;;;2257866;61;20371;-60
2021/12/20 08:32:01;0.00;0.00;0.62;0.00;0.00;0.62;1.57;0.93;;;20.60;28.20;;;;;;2257458;61;20398;-62
2021/12/20 08:34:45;0.00;0.00;0.62;0.00;0.00;0.62;1.50;1.00;;;20.60;28.20;;;;;;2257829;61;20409;-60
2021/12/20 08:37:30;0.00;0.00;0.62;0.00;0.00;0.62;1.47;0.90;;;20.60;28.30;;;;;;2257819;61;20434;-56
2021/12/20 08:40:16;0.00;0.00;0.62;0.00;0.00;0.62;1.73;1.00;;;20.60;28.30;;;;;;2257214;61;20387;-61
2021/12/20 08:43:02;0.00;0.00;0.62;0.00;0.00;0.62;1.57;1.00;;;20.60;28.30;;;;;;2257616;61;20482;-61
2021/12/20 08:45:47;0.00;0.00;0.62;0.00;0.00;0.62;1.63;1.00;;;20.70;28.40;;;;;;2257359;61;20363;-56
2021/12/20 08:48:33;0.00;0.00;0.62;0.00;0.00;0.62;1.53;1.00;;;20.70;28.40;;;;;;2257879;61;20398;-58
2021/12/20 08:51:18;0.00;0.00;0.62;0.00;0.00;0.62;1.40;0.83;;;20.70;28.40;;;;;;2257591;61;20355;-61
2021/12/20 08:54:03;0.00;0.00;0.62;0.00;0.00;0.62;1.50;0.90;;;20.70;28.40;;;;;;2257285;61;20409;-58
2021/12/20 08:56:48;0.00;0.00;0.62;0.00;0.00;0.62;1.70;1.00;;;20.70;28.40;;;;;;2257829;61;20735;-58
2021/12/20 08:59:34;0.00;0.00;0.62;0.00;0.00;0.62;1.80;0.90;;;20.70;28.40;;;;;;2257737;61;20434;-60
2021/12/20 09:02:18;0.00;0.00;0.62;0.00;0.00;0.62;1.57;0.70;;;20.70;28.40;;;;;;2256923;61;20399;-56
2021/12/20 09:05:04;0.00;0.00;0.62;0.00;0.00;0.62;1.50;0.90;;;20.70;28.40;;;;;;2257607;61;20708;-57
2021/12/20 09:07:49;0.00;0.00;0.62;0.00;0.00;0.62;1.40;1.00;;;20.70;28.40;;;;;;2257954;61;20734;-60
2021/12/20 09:10:34;0.00;0.00;0.62;0.00;0.00;0.62;1.50;0.87;;;20.80;29.00;;;;;;2257397;61;20374;-59
2021/12/20 09:13:18;0.00;0.00;0.62;0.00;0.00;0.62;1.57;0.90;;;20.80;28.50;;;;;;2257493;61;20410;-60
2021/12/20 09:16:04;0.00;0.00;0.62;0.00;0.00;0.62;1.70;1.10;;;20.80;28.50;;;;;;2257457;61;20363;-55
2021/12/20 09:18:49;0.00;0.00;0.62;0.00;0.00;0.62;1.37;0.90;;;20.80;28.50;;;;;;2257580;61;20429;-62
2021/12/20 09:21:34;0.00;0.00;0.62;0.00;0.00;0.62;1.47;0.93;;;20.80;28.50;;;;;;2257796;61;20422;-55
2021/12/20 09:24:19;0.00;0.00;0.62;0.00;0.00;0.62;1.40;0.70;;;20.90;28.50;;;;;;2257246;61;20486;-62
2021/12/20 09:27:05;0.00;0.00;0.62;0.00;0.00;0.62;1.20;0.70;;;20.90;28.50;;;;;;2257736;61;20406;-63
2021/12/20 09:29:50;0.00;0.00;0.62;0.00;0.00;0.62;1.67;0.80;;;20.90;28.50;;;;;;2258084;61;20401;-62
2021/12/20 09:32:35;0.00;0.00;0.62;0.00;0.00;0.62;1.80;1.10;;;21.00;28.60;;;;;;2257121;61;20772;-57
2021/12/20 09:35:21;0.00;0.00;0.62;0.00;0.00;0.62;1.33;0.80;;;21.00;28.60;;;;;;2257682;61;20374;-61
2021/12/20 09:38:10;0.00;0.00;0.62;0.00;0.00;0.62;1.70;1.00;;;21.00;28.60;;;;;;2257366;61;20382;-59
2021/12/20 09:43:53;0.00;0.00;0.62;0.00;0.00;0.62;1.53;1.00;;;21.10;28.70;;;;;;2257614;61;20387;-61
2021/12/20 09:46:39;0.00;0.00;0.62;0.00;0.00;0.62;1.23;0.80;;;21.10;28.70;;;;;;2256983;61;20593;-63
2021/12/20 09:49:25;0.00;0.00;0.62;0.00;0.00;0.62;1.50;0.80;;;21.10;28.70;;;;;;2257655;61;20410;-57
2021/12/20 09:52:10;0.00;0.00;0.62;0.00;0.00;0.62;1.50;0.87;;;21.10;28.70;;;;;;2257445;61;20362;-58
2021/12/20 09:54:54;0.00;0.00;0.62;0.00;0.00;0.62;1.57;1.00;;;21.10;28.70;;;;;;2257142;61;20446;-59
2021/12/20 09:57:41;0.00;0.00;0.62;0.00;0.00;0.62;1.40;0.80;;;21.20;28.80;;;;;;2257769;61;20359;-59
2021/12/20 10:00:26;0.00;0.00;0.62;0.00;0.00;0.62;1.50;0.97;;;21.20;28.80;;;;;;2257197;61;20398;-58
2021/12/20 10:03:13;0.00;0.00;0.62;0.00;0.00;0.62;1.37;0.73;;;21.20;28.80;;;;;;2257474;61;20354;-54
2021/12/20 10:05:59;0.00;0.00;0.62;0.00;0.00;0.62;1.57;0.83;;;21.20;28.80;;;;;;2257663;61;20467;-59
2021/12/20 10:08:52;0.00;0.00;0.62;0.00;0.00;0.62;1.43;0.80;;;21.30;28.80;;;;;;2257121;61;20367;-61
2021/12/20 10:11:38;0.00;0.00;0.62;0.00;0.00;0.62;1.30;0.80;;;21.30;28.90;;;;;;2257606;61;20505;-60
2021/12/20 10:14:22;0.00;0.00;0.62;0.00;0.00;0.62;1.60;1.00;;;21.30;28.90;;;;;;2257740;61;20378;-61
2021/12/20 10:17:07;0.00;0.00;0.62;0.00;0.00;0.62;1.40;0.80;;;21.40;28.90;;;;;;2257146;61;20367;-57
2021/12/20 10:19:52;0.00;0.00;0.62;0.00;0.00;0.62;1.40;0.90;;;21.40;28.90;;;;;;2257643;61;20363;-63
2021/12/20 10:22:38;0.00;0.00;0.62;0.00;0.00;0.62;1.93;0.90;;;21.40;28.90;;;;;;2256959;61;20387;-58
2021/12/20 10:25:26;0.00;0.00;0.62;0.00;0.00;0.62;1.70;0.93;;;21.50;28.90;;;;;;2257434;61;20366;-58
2021/12/20 10:28:14;0.00;0.00;0.62;0.00;0.00;0.62;1.47;0.80;;;21.50;28.90;;;;;;2257662;61;20363;-60
2021/12/20 10:31:03;0.00;0.00;0.62;0.00;0.00;0.62;1.77;0.87;;;21.50;29.00;;;;;;2256860;61;20355;-60
2021/12/20 10:33:53;0.00;0.00;0.62;0.00;0.00;0.62;1.30;0.80;;;21.50;29.00;;;;;;2257381;61;20639;-57
2021/12/20 10:36:49;0.00;0.00;0.62;0.00;0.00;0.62;1.97;1.20;;;21.60;29.00;;;;;;2257567;61;20392;-59
2021/12/20 10:39:38;0.00;0.00;0.62;0.00;0.00;0.62;1.67;0.93;;;21.60;29.00;;;;;;2257307;61;20367;-58
2021/12/20 10:42:26;0.00;0.00;0.62;0.00;0.00;0.62;1.40;0.80;;;21.60;29.00;;;;;;2257367;61;20584;-59
2021/12/20 10:45:14;0.00;0.00;0.62;0.00;0.00;0.62;1.60;0.97;;;21.70;29.10;;;;;;2257019;61;20434;-60
2021/12/20 10:48:09;0.00;0.00;0.62;0.00;0.00;0.62;1.70;1.23;;;21.60;29.00;;;;;;2257509;61;20394;-60
2021/12/20 10:50:54;0.00;0.00;0.62;0.00;0.00;0.62;1.43;0.90;;;21.70;29.00;;;;;;2257605;61;20421;-62
2021/12/20 10:53:45;0.00;0.00;0.62;0.00;0.00;0.62;1.50;1.20;;;21.70;29.00;;;;;;2256659;61;20418;-61
2021/12/20 10:56:34;0.00;0.00;0.62;0.00;0.00;0.62;1.40;0.87;;;21.80;29.10;;;;;;2257494;61;20410;-56
2021/12/20 10:59:22;0.00;0.00;0.62;0.00;0.00;0.62;1.63;0.97;;;21.80;29.00;;;;;;2256985;61;20401;-63
2021/12/20 11:05:21;0.00;0.00;0.62;0.00;0.00;0.62;1.63;1.00;;;21.90;28.90;;;;;;2257302;61;20406;-60
2021/12/20 11:11:25;0.00;0.00;0.62;0.00;0.00;0.62;1.83;1.00;;;22.00;28.80;;;;;;2257317;61;20770;-60
2021/12/20 11:14:12;0.00;0.00;0.62;0.00;0.00;0.62;1.67;0.90;;;22.00;28.70;;;;;;2256893;61;20378;-60
2021/12/20 11:16:59;0.00;0.00;0.62;0.00;0.00;0.62;1.40;0.80;;;22.10;28.70;;;;;;2257420;61;20591;-61
2021/12/20 11:19:45;0.00;0.00;0.62;0.00;0.00;0.62;1.60;1.00;;;22.10;28.60;;;;;;2257342;61;20409;-62